sensor_id;sensor_type;location;lat;lon;timestamp;P1;durP1;ratioP1;P2;durP2;ratioP2
82475;SDS011;72099;43.176;76.872;2024-02-21T00:01:54;21.48;;;10.95;;
82475;SDS011;72099;43.176;76.872;2024-02-21T00:04:55;23.23;;;10.75;;
82475;SDS011;72099;43.176;76.872;2024-02-21T00:07:56;22.25;;;11.23;;
82475;SDS011;72099;43.176;76.872;2024-02-21T00:10:59;28.88;;;9.82;;
82475;SDS011;72099;43.176;76.872;2024-02-21T00:14:00;25.40;;;10.63;;
82475;SDS011;72099;43.176;76.872;2024-02-21T00:17:01;24.30;;;11.43;;
82475;SDS011;72099;43.176;76.872;2024-02-21T00:20:01;17.90;;;7.95;;
82475;SDS011;72099;43.176;76.872;2024-02-21T00:23:03;29.63;;;11.25;;
82475;SDS011;72099;43.176;76.872;2024-02-21T00:29:23;15.15;;;9.07;;
82475;SDS011;72099;43.176;76.872;2024-02-21T00:32:24;15.80;;;7.65;;
82475;SDS011;72099;43.176;76.872;2024-02-21T00:35:25;24.55;;;10.10;;
82475;SDS011;72099;43.176;76.872;2024-02-21T00:38:26;22.48;;;9.13;;
82475;SDS011;72099;43.176;76.872;2024-02-21T00:41:27;22.88;;;11.55;;
82475;SDS011;72099;43.176;76.872;2024-02-21T00:44:28;19.63;;;8.88;;
82475;SDS011;72099;43.176;76.872;2024-02-21T00:47:28;22.63;;;7.68;;
82475;SDS011;72099;43.176;76.872;2024-02-21T00:50:29;17.50;;;10.13;;
82475;SDS011;72099;43.176;76.872;2024-02-21T00:53:30;12.65;;;6.35;;
82475;SDS011;72099;43.176;76.872;2024-02-21T00:56:31;12.07;;;7.40;;
82475;SDS011;72099;43.176;76.872;2024-02-21T00:59:32;10.02;;;6.13;;
82475;SDS011;72099;43.176;76.872;2024-02-21T01:02:33;12.23;;;6.53;;
82475;SDS011;72099;43.176;76.872;2024-02-21T01:05:35;16.20;;;6.15;;
82475;SDS011;72099;43.176;76.872;2024-02-21T01:08:35;8.57;;;5.07;;
82475;SDS011;72099;43.176;76.872;2024-02-21T01:11:36;7.38;;;4.30;;
82475;SDS011;72099;43.176;76.872;2024-02-21T01:14:37;11.07;;;6.22;;
82475;SDS011;72099;43.176;76.872;2024-02-21T01:21:06;9.07;;;4.50;;
82475;SDS011;72099;43.176;76.872;2024-02-21T01:24:08;7.80;;;3.90;;
82475;SDS011;72099;43.176;76.872;2024-02-21T01:27:08;5.85;;;3.85;;
82475;SDS011;72099;43.176;76.872;2024-02-21T01:30:09;6.22;;;3.42;;
82475;SDS011;72099;43.176;76.872;2024-02-21T01:33:11;11.98;;;4.78;;
82475;SDS011;72099;43.176;76.872;2024-02-21T01:36:11;14.70;;;6.65;;
82475;SDS011;72099;43.176;76.872;2024-02-21T01:39:12;12.50;;;6.75;;
82475;SDS011;72099;43.176;76.872;2024-02-21T01:42:13;8.35;;;3.75;;
82475;SDS011;72099;43.176;76.872;2024-02-21T01:45:14;12.65;;;6.15;;
82475;SDS011;72099;43.176;76.872;2024-02-21T01:48:16;14.88;;;5.55;;
82475;SDS011;72099;43.176;76.872;2024-02-21T01:51:18;14.55;;;5.70;;
82475;SDS011;72099;43.176;76.872;2024-02-21T01:54:19;11.80;;;4.78;;
82475;SDS011;72099;43.176;76.872;2024-02-21T02:00:49;4.80;;;3.50;;
82475;SDS011;72099;43.176;76.872;2024-02-21T02:03:50;12.15;;;6.07;;
82475;SDS011;72099;43.176;76.872;2024-02-21T02:06:54;13.18;;;4.15;;
82475;SDS011;72099;43.176;76.872;2024-02-21T02:09:55;11.55;;;5.40;;
82475;SDS011;72099;43.176;76.872;2024-02-21T02:12:56;11.05;;;4.18;;
82475;SDS011;72099;43.176;76.872;2024-02-21T02:15:57;6.22;;;3.80;;
82475;SDS011;72099;43.176;76.872;2024-02-21T02:18:58;6.72;;;3.38;;
82475;SDS011;72099;43.176;76.872;2024-02-21T02:22:00;10.52;;;4.00;;
82475;SDS011;72099;43.176;76.872;2024-02-21T02:25:09;9.90;;;4.38;;
82475;SDS011;72099;43.176;76.872;2024-02-21T02:28:10;8.70;;;4.82;;
82475;SDS011;72099;43.176;76.872;2024-02-21T02:31:12;7.53;;;3.47;;
82475;SDS011;72099;43.176;76.872;2024-02-21T02:34:12;5.97;;;3.10;;
82475;SDS011;72099;43.176;76.872;2024-02-21T02:37:13;10.40;;;4.53;;
82475;SDS011;72099;43.176;76.872;2024-02-21T02:40:14;10.70;;;4.32;;
82475;SDS011;72099;43.176;76.872;2024-02-21T02:43:15;6.03;;;3.88;;
82475;SDS011;72099;43.176;76.872;2024-02-21T02:46:16;9.52;;;3.65;;
82475;SDS011;72099;43.176;76.872;2024-02-21T02:49:17;8.25;;;4.45;;
82475;SDS011;72099;43.176;76.872;2024-02-21T02:52:18;8.70;;;3.47;;
82475;SDS011;72099;43.176;76.872;2024-02-21T02:55:19;11.50;;;5.25;;
82475;SDS011;72099;43.176;76.872;2024-02-21T02:58:20;9.45;;;3.95;;
82475;SDS011;72099;43.176;76.872;2024-02-21T03:01:21;10.57;;;5.47;;
82475;SDS011;72099;43.176;76.872;2024-02-21T03:04:22;9.18;;;4.85;;
82475;SDS011;72099;43.176;76.872;2024-02-21T03:10:53;14.18;;;5.20;;
82475;SDS011;72099;43.176;76.872;2024-02-21T03:13:54;13.10;;;6.45;;
82475;SDS011;72099;43.176;76.872;2024-02-21T03:16:57;10.80;;;5.90;;
82475;SDS011;72099;43.176;76.872;2024-02-21T03:19:59;11.02;;;6.40;;
82475;SDS011;72099;43.176;76.872;2024-02-21T03:23:00;13.65;;;7.88;;
82475;SDS011;72099;43.176;76.872;2024-02-21T03:26:00;12.20;;;6.65;;
82475;SDS011;72099;43.176;76.872;2024-02-21T03:29:01;12.57;;;6.93;;
82475;SDS011;72099;43.176;76.872;2024-02-21T03:32:03;22.35;;;7.03;;
82475;SDS011;72099;43.176;76.872;2024-02-21T03:35:05;16.23;;;6.10;;
82475;SDS011;72099;43.176;76.872;2024-02-21T03:38:06;11.80;;;5.82;;
82475;SDS011;72099;43.176;76.872;2024-02-21T03:41:06;13.55;;;7.13;;
82475;SDS011;72099;43.176;76.872;2024-02-21T03:44:07;8.40;;;4.90;;
82475;SDS011;72099;43.176;76.872;2024-02-21T03:47:08;12.80;;;5.97;;
82475;SDS011;72099;43.176;76.872;2024-02-21T03:50:11;12.65;;;5.40;;
82475;SDS011;72099;43.176;76.872;2024-02-21T03:53:12;12.93;;;4.93;;
82475;SDS011;72099;43.176;76.872;2024-02-21T03:56:13;13.15;;;5.05;;
82475;SDS011;72099;43.176;76.872;2024-02-21T03:59:14;11.88;;;5.05;;
82475;SDS011;72099;43.176;76.872;2024-02-21T04:02:15;13.98;;;5.72;;
82475;SDS011;72099;43.176;76.872;2024-02-21T04:05:17;10.10;;;5.32;;
82475;SDS011;72099;43.176;76.872;2024-02-21T04:08:18;9.82;;;4.50;;
82475;SDS011;72099;43.176;76.872;2024-02-21T04:11:19;12.18;;;5.65;;
82475;SDS011;72099;43.176;76.872;2024-02-21T04:14:20;40.10;;;21.42;;
82475;SDS011;72099;43.176;76.872;2024-02-21T04:17:21;42.72;;;19.30;;
82475;SDS011;72099;43.176;76.872;2024-02-21T04:20:22;79.45;;;34.78;;
82475;SDS011;72099;43.176;76.872;2024-02-21T04:23:23;73.32;;;31.23;;
82475;SDS011;72099;43.176;76.872;2024-02-21T04:26:24;69.07;;;34.20;;
82475;SDS011;72099;43.176;76.872;2024-02-21T04:29:25;80.68;;;35.80;;
82475;SDS011;72099;43.176;76.872;2024-02-21T04:32:28;80.30;;;36.97;;
82475;SDS011;72099;43.176;76.872;2024-02-21T04:35:28;71.25;;;33.00;;
82475;SDS011;72099;43.176;76.872;2024-02-21T04:38:30;77.18;;;36.67;;
82475;SDS011;72099;43.176;76.872;2024-02-21T04:41:30;71.32;;;36.10;;
82475;SDS011;72099;43.176;76.872;2024-02-21T04:44:31;78.40;;;36.70;;
82475;SDS011;72099;43.176;76.872;2024-02-21T04:47:32;76.57;;;34.00;;
82475;SDS011;72099;43.176;76.872;2024-02-21T04:50:33;73.65;;;32.70;;
82475;SDS011;72099;43.176;76.872;2024-02-21T04:53:34;70.63;;;35.83;;
82475;SDS011;72099;43.176;76.872;2024-02-21T04:56:35;69.07;;;36.30;;
82475;SDS011;72099;43.176;76.872;2024-02-21T04:59:36;74.97;;;38.30;;
82475;SDS011;72099;43.176;76.872;2024-02-21T05:02:37;68.43;;;35.45;;
82475;SDS011;72099;43.176;76.872;2024-02-21T05:05:37;57.97;;;28.38;;
82475;SDS011;72099;43.176;76.872;2024-02-21T05:08:39;62.90;;;31.40;;
82475;SDS011;72099;43.176;76.872;2024-02-21T05:11:40;54.30;;;28.30;;
82475;SDS011;72099;43.176;76.872;2024-02-21T05:14:41;59.30;;;30.13;;
82475;SDS011;72099;43.176;76.872;2024-02-21T05:21:14;56.22;;;29.10;;
82475;SDS011;72099;43.176;76.872;2024-02-21T05:24:15;49.78;;;24.05;;
82475;SDS011;72099;43.176;76.872;2024-02-21T05:30:44;49.78;;;22.23;;
82475;SDS011;72099;43.176;76.872;2024-02-21T05:33:45;38.75;;;20.85;;
82475;SDS011;72099;43.176;76.872;2024-02-21T05:36:46;39.88;;;21.27;;
82475;SDS011;72099;43.176;76.872;2024-02-21T05:39:47;40.95;;;18.73;;
82475;SDS011;72099;43.176;76.872;2024-02-21T05:42:48;62.40;;;31.65;;
82475;SDS011;72099;43.176;76.872;2024-02-21T05:45:51;78.90;;;37.88;;
82475;SDS011;72099;43.176;76.872;2024-02-21T05:48:52;68.72;;;36.83;;
82475;SDS011;72099;43.176;76.872;2024-02-21T05:51:53;74.57;;;36.83;;
82475;SDS011;72099;43.176;76.872;2024-02-21T05:54:53;85.38;;;44.85;;
82475;SDS011;72099;43.176;76.872;2024-02-21T05:57:54;80.63;;;43.00;;
82475;SDS011;72099;43.176;76.872;2024-02-21T06:00:56;80.07;;;42.35;;
82475;SDS011;72099;43.176;76.872;2024-02-21T06:03:56;79.80;;;41.97;;
82475;SDS011;72099;43.176;76.872;2024-02-21T06:10:19;80.63;;;45.20;;
82475;SDS011;72099;43.176;76.872;2024-02-21T06:16:22;79.28;;;48.05;;
82475;SDS011;72099;43.176;76.872;2024-02-21T06:22:23;74.25;;;39.80;;
82475;SDS011;72099;43.176;76.872;2024-02-21T06:25:24;70.22;;;39.60;;
82475;SDS011;72099;43.176;76.872;2024-02-21T06:28:25;64.55;;;39.83;;
82475;SDS011;72099;43.176;76.872;2024-02-21T06:31:27;74.63;;;39.80;;
82475;SDS011;72099;43.176;76.872;2024-02-21T06:34:29;60.22;;;38.38;;
82475;SDS011;72099;43.176;76.872;2024-02-21T06:37:30;69.32;;;39.47;;
82475;SDS011;72099;43.176;76.872;2024-02-21T06:40:32;61.75;;;38.55;;
82475;SDS011;72099;43.176;76.872;2024-02-21T06:43:38;73.38;;;41.13;;
82475;SDS011;72099;43.176;76.872;2024-02-21T06:46:39;74.13;;;42.55;;
82475;SDS011;72099;43.176;76.872;2024-02-21T06:49:40;67.07;;;35.60;;
82475;SDS011;72099;43.176;76.872;2024-02-21T06:52:41;70.97;;;39.63;;
82475;SDS011;72099;43.176;76.872;2024-02-21T06:58:43;61.08;;;32.20;;
82475;SDS011;72099;43.176;76.872;2024-02-21T07:01:45;59.50;;;31.58;;
82475;SDS011;72099;43.176;76.872;2024-02-21T07:04:49;61.53;;;30.70;;
82475;SDS011;72099;43.176;76.872;2024-02-21T07:11:19;44.80;;;24.08;;
82475;SDS011;72099;43.176;76.872;2024-02-21T07:14:19;39.35;;;21.55;;
82475;SDS011;72099;43.176;76.872;2024-02-21T07:17:20;41.17;;;20.90;;
82475;SDS011;72099;43.176;76.872;2024-02-21T07:20:21;49.97;;;23.23;;
82475;SDS011;72099;43.176;76.872;2024-02-21T07:23:22;36.63;;;21.38;;
82475;SDS011;72099;43.176;76.872;2024-02-21T07:26:23;42.20;;;18.67;;
82475;SDS011;72099;43.176;76.872;2024-02-21T07:29:24;47.13;;;22.85;;
82475;SDS011;72099;43.176;76.872;2024-02-21T07:32:25;42.88;;;21.95;;
82475;SDS011;72099;43.176;76.872;2024-02-21T07:35:26;40.30;;;21.60;;
82475;SDS011;72099;43.176;76.872;2024-02-21T07:38:27;44.40;;;23.40;;
82475;SDS011;72099;43.176;76.872;2024-02-21T07:41:28;48.97;;;21.73;;
82475;SDS011;72099;43.176;76.872;2024-02-21T07:44:31;43.55;;;22.63;;
82475;SDS011;72099;43.176;76.872;2024-02-21T07:47:32;42.03;;;20.58;;
82475;SDS011;72099;43.176;76.872;2024-02-21T07:50:33;38.50;;;20.55;;
82475;SDS011;72099;43.176;76.872;2024-02-21T07:53:34;39.35;;;21.02;;
82475;SDS011;72099;43.176;76.872;2024-02-21T08:00:14;45.72;;;23.50;;
82475;SDS011;72099;43.176;76.872;2024-02-21T08:03:19;48.17;;;23.83;;
82475;SDS011;72099;43.176;76.872;2024-02-21T08:06:21;55.03;;;26.42;;
82475;SDS011;72099;43.176;76.872;2024-02-21T08:09:22;53.75;;;26.10;;
82475;SDS011;72099;43.176;76.872;2024-02-21T08:12:23;48.30;;;24.30;;
82475;SDS011;72099;43.176;76.872;2024-02-21T08:15:24;59.15;;;29.27;;
82475;SDS011;72099;43.176;76.872;2024-02-21T08:18:28;65.57;;;31.63;;
82475;SDS011;72099;43.176;76.872;2024-02-21T08:21:29;60.25;;;27.95;;
82475;SDS011;72099;43.176;76.872;2024-02-21T08:24:30;57.03;;;28.88;;
82475;SDS011;72099;43.176;76.872;2024-02-21T08:27:31;67.60;;;32.78;;
82475;SDS011;72099;43.176;76.872;2024-02-21T08:30:31;69.95;;;37.03;;
82475;SDS011;72099;43.176;76.872;2024-02-21T08:33:32;70.35;;;34.17;;
82475;SDS011;72099;43.176;76.872;2024-02-21T08:36:50;75.05;;;36.75;;
82475;SDS011;72099;43.176;76.872;2024-02-21T08:39:51;70.95;;;34.45;;
82475;SDS011;72099;43.176;76.872;2024-02-21T08:42:52;66.10;;;33.55;;
82475;SDS011;72099;43.176;76.872;2024-02-21T08:45:54;68.97;;;35.28;;
82475;SDS011;72099;43.176;76.872;2024-02-21T08:48:55;71.43;;;32.03;;
82475;SDS011;72099;43.176;76.872;2024-02-21T08:51:55;70.68;;;33.70;;
82475;SDS011;72099;43.176;76.872;2024-02-21T08:54:56;72.15;;;33.80;;
82475;SDS011;72099;43.176;76.872;2024-02-21T08:57:57;61.85;;;31.95;;
82475;SDS011;72099;43.176;76.872;2024-02-21T09:00:58;67.50;;;32.55;;
82475;SDS011;72099;43.176;76.872;2024-02-21T09:03:59;62.72;;;32.20;;
82475;SDS011;72099;43.176;76.872;2024-02-21T09:07:00;65.28;;;34.45;;
82475;SDS011;72099;43.176;76.872;2024-02-21T09:10:01;66.82;;;32.28;;
82475;SDS011;72099;43.176;76.872;2024-02-21T09:13:03;66.95;;;30.98;;
82475;SDS011;72099;43.176;76.872;2024-02-21T09:16:04;63.45;;;31.15;;
82475;SDS011;72099;43.176;76.872;2024-02-21T09:19:06;74.20;;;36.95;;
82475;SDS011;72099;43.176;76.872;2024-02-21T09:22:10;64.72;;;32.33;;
82475;SDS011;72099;43.176;76.872;2024-02-21T09:25:11;61.38;;;30.38;;
82475;SDS011;72099;43.176;76.872;2024-02-21T09:28:12;67.57;;;29.25;;
82475;SDS011;72099;43.176;76.872;2024-02-21T09:31:13;52.63;;;27.13;;
82475;SDS011;72099;43.176;76.872;2024-02-21T09:34:14;59.00;;;27.63;;
82475;SDS011;72099;43.176;76.872;2024-02-21T09:37:15;62.50;;;29.50;;
82475;SDS011;72099;43.176;76.872;2024-02-21T09:40:16;61.38;;;28.40;;
82475;SDS011;72099;43.176;76.872;2024-02-21T09:43:17;65.88;;;28.70;;
82475;SDS011;72099;43.176;76.872;2024-02-21T09:46:19;71.53;;;34.97;;
82475;SDS011;72099;43.176;76.872;2024-02-21T09:49:31;74.35;;;36.35;;
82475;SDS011;72099;43.176;76.872;2024-02-21T09:52:33;85.50;;;38.63;;
82475;SDS011;72099;43.176;76.872;2024-02-21T09:55:36;91.13;;;42.95;;
82475;SDS011;72099;43.176;76.872;2024-02-21T09:58:40;78.70;;;37.20;;
82475;SDS011;72099;43.176;76.872;2024-02-21T10:01:44;84.38;;;40.13;;
82475;SDS011;72099;43.176;76.872;2024-02-21T10:04:47;86.72;;;38.60;;
82475;SDS011;72099;43.176;76.872;2024-02-21T10:11:24;89.07;;;39.70;;
82475;SDS011;72099;43.176;76.872;2024-02-21T10:14:25;91.68;;;40.63;;
82475;SDS011;72099;43.176;76.872;2024-02-21T10:21:07;86.57;;;38.53;;
82475;SDS011;72099;43.176;76.872;2024-02-21T10:24:08;84.35;;;39.92;;
82475;SDS011;72099;43.176;76.872;2024-02-21T10:27:10;78.93;;;37.03;;
82475;SDS011;72099;43.176;76.872;2024-02-21T10:30:14;90.50;;;42.00;;
82475;SDS011;72099;43.176;76.872;2024-02-21T10:33:16;90.22;;;39.92;;
82475;SDS011;72099;43.176;76.872;2024-02-21T10:36:16;88.18;;;38.83;;
82475;SDS011;72099;43.176;76.872;2024-02-21T10:39:17;94.13;;;40.08;;
82475;SDS011;72099;43.176;76.872;2024-02-21T10:42:18;88.65;;;43.15;;
82475;SDS011;72099;43.176;76.872;2024-02-21T10:45:21;86.45;;;39.17;;
82475;SDS011;72099;43.176;76.872;2024-02-21T10:48:28;96.03;;;39.72;;
82475;SDS011;72099;43.176;76.872;2024-02-21T10:51:43;95.10;;;46.95;;
82475;SDS011;72099;43.176;76.872;2024-02-21T10:58:29;98.78;;;44.13;;
82475;SDS011;72099;43.176;76.872;2024-02-21T11:01:31;89.28;;;42.00;;
82475;SDS011;72099;43.176;76.872;2024-02-21T11:04:32;92.88;;;41.38;;
82475;SDS011;72099;43.176;76.872;2024-02-21T11:07:37;100.80;;;41.70;;
82475;SDS011;72099;43.176;76.872;2024-02-21T11:10:40;95.47;;;41.38;;
82475;SDS011;72099;43.176;76.872;2024-02-21T11:13:46;90.30;;;38.55;;
82475;SDS011;72099;43.176;76.872;2024-02-21T11:16:47;100.25;;;40.03;;
82475;SDS011;72099;43.176;76.872;2024-02-21T11:19:48;95.57;;;41.55;;
82475;SDS011;72099;43.176;76.872;2024-02-21T11:22:48;90.55;;;43.58;;
82475;SDS011;72099;43.176;76.872;2024-02-21T11:25:50;90.57;;;40.13;;
82475;SDS011;72099;43.176;76.872;2024-02-21T11:29:00;86.15;;;37.60;;
82475;SDS011;72099;43.176;76.872;2024-02-21T11:32:04;85.50;;;36.08;;
82475;SDS011;72099;43.176;76.872;2024-02-21T11:35:05;91.07;;;40.35;;
82475;SDS011;72099;43.176;76.872;2024-02-21T11:38:12;78.18;;;35.05;;
82475;SDS011;72099;43.176;76.872;2024-02-21T11:41:16;75.85;;;33.50;;
82475;SDS011;72099;43.176;76.872;2024-02-21T11:44:17;89.03;;;36.97;;
82475;SDS011;72099;43.176;76.872;2024-02-21T11:47:18;88.38;;;36.85;;
82475;SDS011;72099;43.176;76.872;2024-02-21T11:50:19;95.57;;;35.85;;
82475;SDS011;72099;43.176;76.872;2024-02-21T11:53:20;81.75;;;36.53;;
82475;SDS011;72099;43.176;76.872;2024-02-21T11:56:21;77.68;;;37.35;;
82475;SDS011;72099;43.176;76.872;2024-02-21T11:59:23;76.20;;;35.10;;
82475;SDS011;72099;43.176;76.872;2024-02-21T12:02:24;77.20;;;35.40;;
82475;SDS011;72099;43.176;76.872;2024-02-21T12:05:25;73.75;;;33.25;;
82475;SDS011;72099;43.176;76.872;2024-02-21T12:08:44;69.20;;;29.25;;
82475;SDS011;72099;43.176;76.872;2024-02-21T12:11:45;83.88;;;36.30;;
82475;SDS011;72099;43.176;76.872;2024-02-21T12:14:58;74.78;;;34.40;;
82475;SDS011;72099;43.176;76.872;2024-02-21T12:17:58;84.53;;;34.95;;
82475;SDS011;72099;43.176;76.872;2024-02-21T12:20:59;80.47;;;34.03;;
82475;SDS011;72099;43.176;76.872;2024-02-21T12:24:10;70.15;;;31.83;;
82475;SDS011;72099;43.176;76.872;2024-02-21T12:27:13;72.65;;;34.03;;
82475;SDS011;72099;43.176;76.872;2024-02-21T12:30:14;87.10;;;33.28;;
82475;SDS011;72099;43.176;76.872;2024-02-21T12:33:16;84.32;;;32.95;;
82475;SDS011;72099;43.176;76.872;2024-02-21T12:36:16;74.68;;;33.00;;
82475;SDS011;72099;43.176;76.872;2024-02-21T12:39:17;75.88;;;33.38;;
82475;SDS011;72099;43.176;76.872;2024-02-21T12:42:18;72.47;;;33.70;;
82475;SDS011;72099;43.176;76.872;2024-02-21T12:45:19;74.97;;;34.03;;
82475;SDS011;72099;43.176;76.872;2024-02-21T12:48:20;78.78;;;32.17;;
82475;SDS011;72099;43.176;76.872;2024-02-21T12:54:23;68.68;;;32.47;;
82475;SDS011;72099;43.176;76.872;2024-02-21T12:57:24;75.25;;;30.92;;
82475;SDS011;72099;43.176;76.872;2024-02-21T13:00:25;69.47;;;33.03;;
82475;SDS011;72099;43.176;76.872;2024-02-21T13:03:27;64.28;;;31.30;;
82475;SDS011;72099;43.176;76.872;2024-02-21T13:06:30;72.47;;;32.33;;
82475;SDS011;72099;43.176;76.872;2024-02-21T13:09:31;75.63;;;32.08;;
82475;SDS011;72099;43.176;76.872;2024-02-21T13:12:32;69.57;;;31.88;;
82475;SDS011;72099;43.176;76.872;2024-02-21T13:15:33;78.53;;;35.13;;
82475;SDS011;72099;43.176;76.872;2024-02-21T13:18:34;76.50;;;32.47;;
82475;SDS011;72099;43.176;76.872;2024-02-21T13:21:37;72.80;;;34.17;;
82475;SDS011;72099;43.176;76.872;2024-02-21T13:24:38;73.47;;;30.85;;
82475;SDS011;72099;43.176;76.872;2024-02-21T13:31:04;68.38;;;30.30;;
82475;SDS011;72099;43.176;76.872;2024-02-21T13:34:05;74.00;;;31.38;;
82475;SDS011;72099;43.176;76.872;2024-02-21T13:37:06;83.90;;;34.20;;
82475;SDS011;72099;43.176;76.872;2024-02-21T13:40:09;65.38;;;29.30;;
82475;SDS011;72099;43.176;76.872;2024-02-21T13:43:11;64.88;;;30.23;;
82475;SDS011;72099;43.176;76.872;2024-02-21T13:46:12;87.72;;;36.03;;
82475;SDS011;72099;43.176;76.872;2024-02-21T13:49:13;74.85;;;35.20;;
82475;SDS011;72099;43.176;76.872;2024-02-21T13:52:14;68.82;;;33.03;;
82475;SDS011;72099;43.176;76.872;2024-02-21T13:55:15;73.88;;;32.78;;
82475;SDS011;72099;43.176;76.872;2024-02-21T13:58:16;68.85;;;33.20;;
82475;SDS011;72099;43.176;76.872;2024-02-21T14:01:18;63.75;;;29.55;;
82475;SDS011;72099;43.176;76.872;2024-02-21T14:04:18;68.13;;;32.80;;
82475;SDS011;72099;43.176;76.872;2024-02-21T14:07:20;73.97;;;34.85;;
82475;SDS011;72099;43.176;76.872;2024-02-21T14:10:21;59.42;;;30.88;;
82475;SDS011;72099;43.176;76.872;2024-02-21T14:13:22;63.80;;;30.80;;
82475;SDS011;72099;43.176;76.872;2024-02-21T14:16:38;81.32;;;37.63;;
82475;SDS011;72099;43.176;76.872;2024-02-21T14:19:39;78.63;;;33.85;;
82475;SDS011;72099;43.176;76.872;2024-02-21T14:22:40;85.78;;;40.90;;
82475;SDS011;72099;43.176;76.872;2024-02-21T14:25:41;83.70;;;42.95;;
82475;SDS011;72099;43.176;76.872;2024-02-21T14:28:42;72.63;;;35.10;;
82475;SDS011;72099;43.176;76.872;2024-02-21T14:31:43;77.75;;;36.00;;
82475;SDS011;72099;43.176;76.872;2024-02-21T14:34:44;84.38;;;39.00;;
82475;SDS011;72099;43.176;76.872;2024-02-21T14:37:45;68.00;;;34.83;;
82475;SDS011;72099;43.176;76.872;2024-02-21T14:40:46;88.72;;;36.60;;
82475;SDS011;72099;43.176;76.872;2024-02-21T14:43:47;100.35;;;45.65;;
82475;SDS011;72099;43.176;76.872;2024-02-21T14:46:47;81.57;;;38.78;;
82475;SDS011;72099;43.176;76.872;2024-02-21T14:49:49;89.18;;;41.53;;
82475;SDS011;72099;43.176;76.872;2024-02-21T14:52:50;92.47;;;44.85;;
82475;SDS011;72099;43.176;76.872;2024-02-21T14:55:51;90.03;;;43.35;;
82475;SDS011;72099;43.176;76.872;2024-02-21T14:58:52;76.55;;;35.35;;
82475;SDS011;72099;43.176;76.872;2024-02-21T15:01:53;80.95;;;36.00;;
82475;SDS011;72099;43.176;76.872;2024-02-21T15:04:53;73.57;;;34.83;;
82475;SDS011;72099;43.176;76.872;2024-02-21T15:07:55;71.10;;;32.15;;
82475;SDS011;72099;43.176;76.872;2024-02-21T15:10:59;80.82;;;37.05;;
82475;SDS011;72099;43.176;76.872;2024-02-21T15:14:00;91.55;;;45.80;;
82475;SDS011;72099;43.176;76.872;2024-02-21T15:17:02;82.60;;;40.78;;
82475;SDS011;72099;43.176;76.872;2024-02-21T15:20:03;70.47;;;31.02;;
82475;SDS011;72099;43.176;76.872;2024-02-21T15:23:07;78.60;;;33.88;;
82475;SDS011;72099;43.176;76.872;2024-02-21T15:26:08;69.85;;;34.38;;
82475;SDS011;72099;43.176;76.872;2024-02-21T15:29:09;82.45;;;38.67;;
82475;SDS011;72099;43.176;76.872;2024-02-21T15:32:10;81.20;;;35.28;;
82475;SDS011;72099;43.176;76.872;2024-02-21T15:35:11;73.60;;;32.60;;
82475;SDS011;72099;43.176;76.872;2024-02-21T15:38:12;79.32;;;32.88;;
82475;SDS011;72099;43.176;76.872;2024-02-21T15:41:13;75.90;;;35.03;;
82475;SDS011;72099;43.176;76.872;2024-02-21T15:44:14;60.92;;;25.70;;
82475;SDS011;72099;43.176;76.872;2024-02-21T15:50:35;73.75;;;31.65;;
82475;SDS011;72099;43.176;76.872;2024-02-21T15:53:37;64.40;;;25.85;;
82475;SDS011;72099;43.176;76.872;2024-02-21T16:00:06;58.35;;;28.73;;
82475;SDS011;72099;43.176;76.872;2024-02-21T16:03:12;73.15;;;31.92;;
82475;SDS011;72099;43.176;76.872;2024-02-21T16:06:13;63.72;;;28.38;;
82475;SDS011;72099;43.176;76.872;2024-02-21T16:09:14;69.10;;;30.80;;
82475;SDS011;72099;43.176;76.872;2024-02-21T16:12:15;59.75;;;28.58;;
82475;SDS011;72099;43.176;76.872;2024-02-21T16:15:17;57.40;;;26.58;;
82475;SDS011;72099;43.176;76.872;2024-02-21T16:18:18;57.35;;;27.90;;
82475;SDS011;72099;43.176;76.872;2024-02-21T16:21:20;62.55;;;31.05;;
82475;SDS011;72099;43.176;76.872;2024-02-21T16:24:21;45.50;;;24.67;;
82475;SDS011;72099;43.176;76.872;2024-02-21T16:27:22;67.90;;;31.95;;
82475;SDS011;72099;43.176;76.872;2024-02-21T16:30:24;83.13;;;30.05;;
82475;SDS011;72099;43.176;76.872;2024-02-21T16:33:26;69.32;;;30.08;;
82475;SDS011;72099;43.176;76.872;2024-02-21T16:36:27;63.45;;;29.83;;
82475;SDS011;72099;43.176;76.872;2024-02-21T16:39:28;62.45;;;29.88;;
82475;SDS011;72099;43.176;76.872;2024-02-21T16:42:29;64.78;;;29.52;;
82475;SDS011;72099;43.176;76.872;2024-02-21T16:45:30;59.13;;;26.33;;
82475;SDS011;72099;43.176;76.872;2024-02-21T16:48:31;51.38;;;23.95;;
82475;SDS011;72099;43.176;76.872;2024-02-21T16:51:32;48.92;;;22.98;;
82475;SDS011;72099;43.176;76.872;2024-02-21T16:54:33;51.83;;;26.10;;
82475;SDS011;72099;43.176;76.872;2024-02-21T17:00:50;47.25;;;20.92;;
82475;SDS011;72099;43.176;76.872;2024-02-21T17:03:51;44.65;;;20.92;;
82475;SDS011;72099;43.176;76.872;2024-02-21T17:06:52;47.17;;;20.35;;
82475;SDS011;72099;43.176;76.872;2024-02-21T17:09:53;40.15;;;17.58;;
82475;SDS011;72099;43.176;76.872;2024-02-21T17:12:54;31.23;;;15.27;;
82475;SDS011;72099;43.176;76.872;2024-02-21T17:15:55;45.70;;;19.10;;
82475;SDS011;72099;43.176;76.872;2024-02-21T17:18:56;63.95;;;28.27;;
82475;SDS011;72099;43.176;76.872;2024-02-21T17:21:57;52.58;;;24.13;;
82475;SDS011;72099;43.176;76.872;2024-02-21T17:25:00;48.78;;;17.27;;
82475;SDS011;72099;43.176;76.872;2024-02-21T17:28:00;43.58;;;17.73;;
82475;SDS011;72099;43.176;76.872;2024-02-21T17:31:01;40.67;;;16.42;;
82475;SDS011;72099;43.176;76.872;2024-02-21T17:34:02;25.52;;;14.55;;
82475;SDS011;72099;43.176;76.872;2024-02-21T17:37:04;19.27;;;9.07;;
82475;SDS011;72099;43.176;76.872;2024-02-21T17:40:06;22.80;;;11.73;;
82475;SDS011;72099;43.176;76.872;2024-02-21T17:43:07;16.33;;;9.40;;
82475;SDS011;72099;43.176;76.872;2024-02-21T17:46:08;17.67;;;9.90;;
82475;SDS011;72099;43.176;76.872;2024-02-21T17:49:09;17.20;;;9.82;;
82475;SDS011;72099;43.176;76.872;2024-02-21T17:52:11;18.58;;;7.15;;
82475;SDS011;72099;43.176;76.872;2024-02-21T17:55:11;13.63;;;7.70;;
82475;SDS011;72099;43.176;76.872;2024-02-21T17:58:13;13.40;;;6.75;;
82475;SDS011;72099;43.176;76.872;2024-02-21T18:01:14;7.55;;;4.28;;
82475;SDS011;72099;43.176;76.872;2024-02-21T18:04:16;15.85;;;5.03;;
82475;SDS011;72099;43.176;76.872;2024-02-21T18:10:34;11.50;;;5.00;;
82475;SDS011;72099;43.176;76.872;2024-02-21T18:13:38;9.82;;;4.10;;
82475;SDS011;72099;43.176;76.872;2024-02-21T18:20:02;11.50;;;3.83;;
82475;SDS011;72099;43.176;76.872;2024-02-21T18:23:03;11.35;;;3.90;;
82475;SDS011;72099;43.176;76.872;2024-02-21T18:26:04;9.82;;;4.72;;
82475;SDS011;72099;43.176;76.872;2024-02-21T18:29:05;9.93;;;4.07;;
82475;SDS011;72099;43.176;76.872;2024-02-21T18:32:09;4.28;;;2.83;;
82475;SDS011;72099;43.176;76.872;2024-02-21T18:35:10;4.80;;;2.67;;
82475;SDS011;72099;43.176;76.872;2024-02-21T18:38:11;8.98;;;3.45;;
82475;SDS011;72099;43.176;76.872;2024-02-21T18:41:12;5.88;;;3.03;;
82475;SDS011;72099;43.176;76.872;2024-02-21T18:44:13;9.52;;;3.08;;
82475;SDS011;72099;43.176;76.872;2024-02-21T18:47:14;4.25;;;2.08;;